Time;durP1;ratioP1;P1;durP2;ratioP2;P2;SDS_P1;SDS_P2;PMS_P1;PMS_P2;Temp;Humidity;BMP_temperature;BMP_pressure;BME280_temperature;BME280_humidity;BME280_pressure;Samples;Min_cycle;Max_cycle;Signal;HPM_P1;HPM_P2
2021/04/22 00:01:58;;;;;;;31.48;20.23;;;;;;;-139.48;100.00;61774.03;5073948;28;20166;-72
2021/04/22 00:04:43;;;;;;;29.05;20.75;;;;;;;-139.48;100.00;61774.03;5073988;28;20047;-72
2021/04/22 00:07:27;;;;;;;33.72;20.92;;;;;;;-139.48;100.00;61774.03;5074440;28;20067;-71
2021/04/22 00:10:15;;;;;;;31.23;20.58;;;;;;;-139.48;100.00;61774.03;5075144;28;20078;-71
2021/04/22 00:12:59;;;;;;;35.70;20.90;;;;;;;-139.48;100.00;61774.03;5073236;28;20079;-71
2021/04/22 00:15:43;;;;;;;37.10;23.35;;;;;;;-139.48;100.00;61774.03;5073783;28;20056;-72
2021/04/22 00:18:28;;;;;;;32.53;21.92;;;;;;;-139.48;100.00;61774.03;5073399;28;20175;-72
2021/04/22 00:21:12;;;;;;;30.00;22.13;;;;;;;-139.48;100.00;61774.03;5074573;28;20043;-72
2021/04/22 00:23:56;;;;;;;33.50;22.35;;;;;;;-139.48;100.00;61774.03;5087969;28;20105;-72
2021/04/22 00:26:40;;;;;;;33.47;22.67;;;;;;;-139.48;100.00;61774.03;5059654;28;20127;-71
2021/04/22 00:29:24;;;;;;;34.88;22.58;;;;;;;-139.48;100.00;61774.03;5074189;28;20051;-72
2021/04/22 00:32:08;;;;;;;32.33;22.10;;;;;;;-139.48;100.00;61774.03;5073022;28;20050;-71
2021/04/22 00:34:52;;;;;;;34.17;23.17;;;;;;;-139.48;100.00;61774.03;5073371;28;20054;-71
2021/04/22 00:37:36;;;;;;;34.28;23.05;;;;;;;-139.48;100.00;61774.03;5073071;28;20094;-71
2021/04/22 00:40:23;;;;;;;34.42;23.45;;;;;;;-139.48;100.00;61774.03;5074241;28;20051;-71
2021/04/22 00:43:11;;;;;;;34.38;22.67;;;;;;;-139.48;100.00;61774.03;5073205;28;20481;-72
2021/04/22 00:45:54;;;;;;;34.47;23.95;;;;;;;-139.48;100.00;61774.03;5074129;28;20059;-71
2021/04/22 00:48:38;;;;;;;34.33;23.92;;;;;;;-139.48;100.00;61774.03;5073353;28;20520;-71
2021/04/22 00:51:22;;;;;;;31.80;23.23;;;;;;;-139.48;100.00;61774.03;5073092;28;20571;-71
2021/04/22 00:54:07;;;;;;;35.45;23.42;;;;;;;-139.48;100.00;61774.03;5073276;28;20474;-71
2021/04/22 00:56:50;;;;;;;35.22;23.83;;;;;;;-139.48;100.00;61774.03;5072943;28;20417;-71
2021/04/22 00:59:35;;;;;;;39.40;24.60;;;;;;;-139.48;100.00;61774.03;5073910;28;20086;-71
2021/04/22 01:02:19;;;;;;;32.05;23.13;;;;;;;-139.48;100.00;61774.03;5072735;28;20043;-72
2021/04/22 01:05:11;;;;;;;36.15;24.30;;;;;;;-139.48;100.00;61774.03;5072636;28;20122;-72
2021/04/22 01:07:55;;;;;;;34.40;23.42;;;;;;;-139.48;100.00;61774.03;5072781;28;20055;-72
2021/04/22 01:10:39;;;;;;;33.85;23.90;;;;;;;-139.48;100.00;61774.03;5087285;28;20137;-72
2021/04/22 01:13:23;;;;;;;36.25;23.80;;;;;;;-139.48;100.00;61774.03;5072463;28;20043;-72
2021/04/22 01:16:07;;;;;;;36.85;24.10;;;;;;;-139.48;100.00;61774.03;5072674;28;20516;-72
2021/04/22 01:18:51;;;;;;;32.67;22.73;;;;;;;-139.48;100.00;61774.03;5073135;28;20050;-72
2021/04/22 01:21:35;;;;;;;34.47;22.35;;;;;;;-139.48;100.00;61774.03;5086913;28;20063;-70
2021/04/22 01:24:19;;;;;;;39.90;24.95;;;;;;;-139.48;100.00;61774.03;5086965;28;20051;-72
2021/04/22 01:27:06;;;;;;;34.08;22.83;;;;;;;-139.48;100.00;61774.03;5072334;28;20047;-72
2021/04/22 01:29:51;;;;;;;33.25;23.00;;;;;;;-139.48;100.00;61774.03;5086619;28;20519;-72
2021/04/22 01:32:34;;;;;;;34.00;23.58;;;;;;;-139.48;100.00;61774.03;5086496;28;20409;-71
2021/04/22 01:35:21;;;;;;;35.97;23.33;;;;;;;-139.48;100.00;61774.03;5072443;28;20091;-71
2021/04/22 01:38:06;;;;;;;36.65;22.42;;;;;;;-139.48;100.00;61774.03;5073098;28;20047;-71
2021/04/22 01:40:52;;;;;;;35.80;22.45;;;;;;;-139.48;100.00;61774.03;5086377;28;20051;-72
2021/04/22 01:43:36;;;;;;;31.65;21.92;;;;;;;-139.48;100.00;61774.03;5058451;28;20173;-71
2021/04/22 01:46:20;;;;;;;34.67;22.13;;;;;;;-139.48;100.00;61774.03;5072045;28;20048;-71
2021/04/22 01:49:04;;;;;;;36.97;22.38;;;;;;;-139.48;100.00;61774.03;5072350;28;20085;-71
2021/04/22 01:51:48;;;;;;;31.95;22.67;;;;;;;-139.48;100.00;61774.03;5072123;28;20417;-71
2021/04/22 01:54:32;;;;;;;31.25;22.75;;;;;;;-139.48;100.00;61774.03;5073281;28;20110;-71
2021/04/22 01:57:16;;;;;;;37.08;22.75;;;;;;;-139.48;100.00;61774.03;5086281;28;20047;-71
2021/04/22 02:00:00;;;;;;;36.13;21.50;;;;;;;-139.48;100.00;61774.03;5072971;28;20619;-72
2021/04/22 02:02:44;;;;;;;36.17;21.88;;;;;;;-139.48;100.00;61774.03;5072127;28;20116;-72
2021/04/22 02:05:28;;;;;;;33.50;21.52;;;;;;;-139.48;100.00;61774.03;5073169;28;20051;-69
2021/04/22 02:08:12;;;;;;;35.45;20.50;;;;;;;-139.48;100.00;61774.03;5072877;28;20577;-72
2021/04/22 02:10:56;;;;;;;32.97;21.42;;;;;;;-139.48;100.00;61774.03;5057707;28;20135;-71
2021/04/22 02:13:40;;;;;;;33.53;20.65;;;;;;;-139.48;100.00;61774.03;5086327;28;20059;-72
2021/04/22 02:16:24;;;;;;;35.65;22.67;;;;;;;7.47;100.00;100679.25;5073332;28;20056;-71
2021/04/22 02:19:08;;;;;;;35.13;22.10;;;;;;;-8.01;100.00;100679.25;5057606;28;20047;-71
2021/04/22 02:21:52;;;;;;;31.42;21.05;;;;;;;11.30;70.77;100709.03;5071659;28;20417;-71
2021/04/22 02:24:36;;;;;;;30.98;19.65;;;;;;;11.26;70.65;100718.25;5072994;28;20467;-71
2021/04/22 02:27:20;;;;;;;30.48;20.38;;;;;;;11.16;70.99;100714.72;5072232;28;20046;-72
2021/04/22 02:30:09;;;;;;;33.55;20.88;;;;;;;11.10;71.07;100712.63;5071869;28;20098;-69
2021/04/22 02:32:54;;;;;;;31.50;20.25;;;;;;;11.05;71.68;100712.19;5075321;28;20512;-70
2021/04/22 02:35:40;;;;;;;31.70;20.80;;;;;;;10.98;72.21;100716.34;5075672;28;20460;-71
2021/04/22 02:38:24;;;;;;;30.25;19.15;;;;;;;10.98;71.69;100726.19;5075902;28;20046;-71
2021/04/22 02:41:08;;;;;;;31.73;19.45;;;;;;;10.84;72.34;100729.25;5076258;28;20101;-70
2021/04/22 02:43:51;;;;;;;32.75;20.17;;;;;;;10.78;72.93;100735.13;5089619;28;20101;-72
2021/04/22 02:46:35;;;;;;;32.20;19.63;;;;;;;10.74;73.21;100737.19;5076487;28;20051;-72
2021/04/22 02:49:19;;;;;;;30.67;19.80;;;;;;;10.58;73.95;100723.53;5075572;28;20051;-72
2021/04/22 02:52:04;;;;;;;29.17;19.08;;;;;;;10.58;73.56;100734.19;5076147;28;20452;-70
2021/04/22 02:54:47;;;;;;;;;;;;;;;10.54;73.65;100743.41;5076466;28;20520;-72
2021/04/22 02:57:31;;;;;;;32.60;18.55;;;;;;;10.49;73.61;100747.47;5060812;28;19977;-71
2021/04/22 03:00:19;;;;;;;31.25;18.88;;;;;;;10.43;74.17;100746.16;5075219;28;20051;-71
2021/04/22 03:03:03;;;;;;;26.90;18.10;;;;;;;10.33;74.50;100755.94;5075141;28;20174;-71
2021/04/22 03:05:47;;;;;;;;;;;;;;;10.34;74.83;100752.28;5075570;28;20067;-71
2021/04/22 03:08:32;;;;;;;29.58;18.17;;;;;;;10.25;75.15;100755.72;5075145;28;19920;-71
2021/04/22 03:11:16;;;;;;;33.17;17.58;;;;;;;10.21;75.10;100760.63;5075704;28;20059;-72
2021/04/22 03:14:00;;;;;;;26.55;16.65;;;;;;;10.15;75.21;100763.78;5074992;28;20094;-70
2021/04/22 03:16:43;;;;;;;27.08;17.30;;;;;;;10.13;75.46;100763.09;5075779;28;20519;-72
2021/04/22 03:19:27;;;;;;;27.48;17.30;;;;;;;10.07;75.62;100768.91;5089214;28;20074;-71
2021/04/22 03:22:11;;;;;;;24.42;17.38;;;;;;;10.07;75.81;100774.25;5074485;28;20089;-72
2021/04/22 03:24:55;;;;;;;30.20;17.52;;;;;;;9.99;75.81;100774.03;5088923;28;20047;-72
2021/04/22 03:27:39;;;;;;;25.58;16.42;;;;;;;9.96;75.95;100775.13;5075797;28;20051;-72
2021/04/22 03:30:28;;;;;;;27.92;17.00;;;;;;;9.93;75.84;100772.72;5074659;28;20095;-71
2021/04/22 03:33:13;;;;;;;23.30;15.70;;;;;;;9.88;76.34;100769.59;5075236;28;20118;-71
2021/04/22 03:35:56;;;;;;;24.48;16.58;;;;;;;9.80;76.59;100771.19;5075625;28;20055;-70
2021/04/22 03:38:40;;;;;;;27.50;15.90;;;;;;;9.81;76.41;100772.88;5088644;28;20105;-72
2021/04/22 03:41:24;;;;;;;28.92;16.30;;;;;;;9.77;76.65;100774.13;5075161;28;20048;-72
2021/04/22 03:44:08;;;;;;;28.33;16.52;;;;;;;9.68;76.88;100774.88;5059618;28;20055;-72
2021/04/22 03:46:52;;;;;;;27.33;16.77;;;;;;;9.69;76.75;100773.91;5060292;28;20046;-70
2021/04/22 03:49:40;;;;;;;25.52;15.95;;;;;;;9.65;77.17;100777.78;5088712;28;20071;-71
2021/04/22 03:52:24;;;;;;;26.67;15.20;;;;;;;9.59;77.18;100781.78;5073776;28;20047;-71
2021/04/22 03:55:09;;;;;;;29.20;14.55;;;;;;;9.46;77.04;100775.78;5074869;28;20525;-71
2021/04/22 03:57:53;;;;;;;22.40;14.85;;;;;;;9.44;77.38;100776.88;5073834;28;20097;-72
2021/04/22 04:00:37;;;;;;;24.52;14.50;;;;;;;9.35;78.18;100789.13;5073783;28;20051;-71
2021/04/22 04:03:21;;;;;;;28.98;14.90;;;;;;;9.33;78.35;100792.88;5088368;28;20083;-71
2021/04/22 04:06:05;;;;;;;23.02;14.60;;;;;;;9.35;78.11;100796.25;5088561;28;20052;-71
2021/04/22 04:08:49;;;;;;;23.23;14.35;;;;;;;9.30;77.79;100793.13;5073931;28;20052;-71
2021/04/22 04:11:33;;;;;;;23.75;14.50;;;;;;;9.25;78.04;100809.44;5073412;28;20139;-71
2021/04/22 04:14:17;;;;;;;21.02;14.05;;;;;;;9.25;77.97;100813.91;5088201;28;20055;-72
2021/04/22 04:17:02;;;;;;;32.05;14.63;;;;;;;9.21;78.49;100820.47;5073991;28;20047;-71
2021/04/22 04:19:46;;;;;;;25.30;14.18;;;;;;;9.14;78.52;100819.25;5073456;28;20083;-70
2021/04/22 04:22:30;;;;;;;21.65;12.88;;;;;;;9.08;78.38;100822.41;5087649;28;20047;-71
2021/04/22 04:25:14;;;;;;;22.67;12.65;;;;;;;9.12;78.28;100824.69;5087648;28;20051;-72
2021/04/22 04:27:58;;;;;;;25.42;12.90;;;;;;;9.04;78.66;100831.56;5073201;28;20043;-71
2021/04/22 04:30:42;;;;;;;19.35;12.18;;;;;;;9.07;78.39;100839.34;5059162;28;20082;-72
2021/04/22 04:33:26;;;;;;;29.58;12.20;;;;;;;8.98;78.47;100835.56;5073366;28;20127;-71
2021/04/22 04:36:10;;;;;;;20.30;12.02;;;;;;;9.03;78.05;100837.88;5073111;28;20523;-71
2021/04/22 04:38:55;;;;;;;24.90;13.35;;;;;;;9.00;77.78;100841.63;5074019;28;20421;-71
2021/04/22 04:41:38;;;;;;;22.40;11.57;;;;;;;8.89;77.98;100840.78;5072875;28;20413;-71
2021/04/22 04:44:23;;;;;;;22.92;11.63;;;;;;;8.94;77.75;100854.53;5074232;28;20047;-71
2021/04/22 04:47:07;;;;;;;21.33;11.45;;;;;;;8.91;77.39;100854.78;5073235;28;20066;-71
2021/04/22 04:49:51;;;;;;;19.88;10.77;;;;;;;8.93;77.17;100855.50;5074045;28;20101;-71
2021/04/22 04:52:35;;;;;;;22.17;11.65;;;;;;;8.89;77.24;100862.91;5073972;28;20059;-71
2021/04/22 04:55:19;;;;;;;19.88;10.10;;;;;;;8.94;77.47;100875.81;5072929;28;20055;-71
2021/04/22 04:58:03;;;;;;;22.00;10.85;;;;;;;8.94;76.56;100876.66;5072886;28;20191;-70
2021/04/22 05:00:47;;;;;;;25.50;10.25;;;;;;;8.87;77.05;100877.28;5072960;28;20105;-72
2021/04/22 05:03:31;;;;;;;22.40;10.38;;;;;;;8.94;76.64;100887.31;5086827;28;20094;-71
2021/04/22 05:06:14;;;;;;;18.52;10.23;;;;;;;8.96;76.02;100895.19;5072111;28;20043;-71
2021/04/22 05:08:58;;;;;;;20.40;9.32;;;;;;;8.99;75.09;100900.25;5072029;28;20090;-72
2021/04/22 05:11:42;;;;;;;19.55;9.13;;;;;;;9.01;74.58;100900.97;5072967;28;20155;-70
2021/04/22 05:14:26;;;;;;;16.55;8.38;;;;;;;9.04;73.89;100903.38;5072099;28;20520;-70
2021/04/22 05:17:10;;;;;;;19.30;8.45;;;;;;;9.09;73.05;100902.06;5057915;28;20051;-71
2021/04/22 05:19:54;;;;;;;20.15;8.85;;;;;;;9.10;72.90;100913.56;5072035;28;20514;-71
2021/04/22 05:22:38;;;;;;;20.98;9.73;;;;;;;9.12;72.64;100922.25;5072891;28;20056;-70
2021/04/22 05:25:22;;;;;;;27.05;9.63;;;;;;;9.13;71.98;100929.28;5072803;28;20051;-72
2021/04/22 05:28:06;;;;;;;17.45;7.70;;;;;;;9.17;71.03;100930.75;5071920;28;20049;-71
2021/04/22 05:30:50;;;;;;;23.50;8.18;;;;;;;9.14;70.44;100936.28;5071785;28;20569;-71
2021/04/22 05:33:35;;;;;;;15.90;7.40;;;;;;;9.12;70.12;100941.75;5057616;28;20043;-71
2021/04/22 05:36:19;;;;;;;16.17;7.18;;;;;;;9.13;69.40;100945.22;5071711;28;20125;-71
2021/04/22 05:39:03;;;;;;;20.83;7.43;;;;;;;9.18;70.06;100948.41;5071576;28;20097;-71
2021/04/22 05:41:49;;;;;;;;;;;;;;;9.07;68.19;100956.38;5057757;28;20053;-71
2021/04/22 05:44:34;;;;;;;15.00;6.60;;;;;;;9.13;67.36;100961.19;5072824;28;19919;-71
2021/04/22 05:47:21;;;;;;;9.18;5.72;;;;;;;9.09;67.41;100960.56;5071711;28;20051;-71
2021/04/22 05:50:05;;;;;;;18.63;6.65;;;;;;;9.06;66.96;100967.97;5057203;28;20094;-71
2021/04/22 05:52:49;;;;;;;15.18;5.95;;;;;;;9.04;66.92;100977.84;5071307;28;20052;-71
2021/04/22 05:55:33;;;;;;;16.20;5.75;;;;;;;9.10;67.34;100969.41;5057708;28;20123;-71
2021/04/22 05:58:17;;;;;;;19.20;7.53;;;;;;;9.16;66.16;100976.94;5057245;28;20055;-71
2021/04/22 06:01:01;;;;;;;23.33;6.57;;;;;;;9.23;66.18;100986.13;5057265;28;20150;-71
2021/04/22 06:03:45;;;;;;;16.88;5.75;;;;;;;9.24;64.68;100985.16;5057281;28;20051;-70
2021/04/22 06:06:29;;;;;;;14.38;5.82;;;;;;;9.14;64.53;100992.13;5059705;28;20048;-70
2021/04/22 06:09:13;;;;;;;20.98;5.53;;;;;;;9.23;64.66;100991.44;5061239;28;20055;-71
2021/04/22 06:11:57;;;;;;;13.98;5.25;;;;;;;9.18;63.92;100993.63;5060728;28;20051;-71
2021/04/22 06:14:44;;;;;;;13.43;5.40;;;;;;;9.24;63.47;100995.78;5061132;28;20051;-69
2021/04/22 06:17:28;;;;;;;17.55;5.70;;;;;;;9.27;63.48;101000.91;5060877;28;20051;-72
2021/04/22 06:20:21;;;;;;;9.85;5.00;;;;;;;9.21;63.47;100998.69;5061084;28;20042;-72
2021/04/22 06:23:05;;;;;;;19.90;5.40;;;;;;;9.26;62.44;100993.88;5060704;28;20047;-70
2021/04/22 06:25:48;;;;;;;20.55;5.63;;;;;;;9.35;63.29;101009.09;5060659;28;20193;-71
2021/04/22 06:28:32;;;;;;;14.52;5.53;;;;;;;9.54;62.43;101012.03;5061095;28;20543;-72
2021/04/22 06:31:17;;;;;;;12.70;5.22;;;;;;;9.40;61.64;101006.97;5060462;28;20054;-72
2021/04/22 06:34:01;;;;;;;12.32;4.45;;;;;;;9.51;61.54;101014.94;5060469;28;20424;-72
2021/04/22 06:36:44;;;;;;;12.77;5.25;;;;;;;9.59;61.06;101017.88;5060637;28;20051;-70
2021/04/22 06:39:29;;;;;;;15.77;4.78;;;;;;;9.66;60.78;101019.91;5060719;28;20101;-72
2021/04/22 06:42:13;;;;;;;13.05;5.07;;;;;;;9.80;60.93;101026.84;5060316;28;20047;-72
2021/04/22 06:44:57;;;;;;;;;;;;;;;10.03;59.78;101034.72;5060889;28;20051;-72
2021/04/22 06:47:42;;;;;;;11.25;5.68;;;;;;;9.87;59.16;101033.38;5060455;28;20379;-72
2021/04/22 06:50:26;;;;;;;15.95;5.15;;;;;;;10.04;59.09;101035.56;5060330;28;20047;-72
2021/04/22 06:53:11;;;;;;;17.63;5.43;;;;;;;10.01;58.11;101039.28;5060105;28;20067;-69
2021/04/22 06:55:55;;;;;;;12.70;4.78;;;;;;;9.80;58.20;101042.81;5060140;28;20405;-70
2021/04/22 06:58:39;;;;;;;14.10;4.65;;;;;;;9.90;57.94;101038.44;5059944;28;20055;-72
2021/04/22 07:01:22;;;;;;;13.07;5.13;;;;;;;10.06;57.62;101039.81;5060324;28;20062;-71
2021/04/22 07:04:06;;;;;;;13.38;5.10;;;;;;;10.16;57.43;101062.09;5074255;28;20059;-71
2021/04/22 07:06:50;;;;;;;16.45;5.32;;;;;;;10.21;56.94;101046.56;5060029;28;20102;-71
2021/04/22 07:09:35;;;;;;;12.93;5.38;;;;;;;10.34;57.16;101045.44;5059879;28;20477;-71
2021/04/22 07:12:19;;;;;;;11.00;5.45;;;;;;;10.42;56.79;101056.34;5059857;28;20056;-70
2021/04/22 07:15:05;;;;;;;15.05;5.97;;;;;;;10.33;55.72;101070.41;5059672;28;20477;-70
2021/04/22 07:17:50;;;;;;;11.07;4.95;;;;;;;10.39;55.39;101053.94;5058453;28;20067;-71
2021/04/22 07:20:34;;;;;;;18.75;5.53;;;;;;;10.32;55.81;101073.19;5059755;28;20105;-71
2021/04/22 07:23:18;;;;;;;16.08;4.93;;;;;;;10.52;55.52;101070.63;5059711;28;20083;-71
2021/04/22 07:26:02;;;;;;;11.95;4.65;;;;;;;10.67;54.75;101082.69;5059474;28;20052;-71
2021/04/22 07:28:45;;;;;;;9.23;4.38;;;;;;;10.65;53.88;101089.97;5059773;28;20511;-71
2021/04/22 07:31:30;;;;;;;11.55;4.70;;;;;;;10.70;53.47;101082.47;5059356;28;20090;-70
2021/04/22 07:34:15;;;;;;;16.17;4.97;;;;;;;10.80;54.10;101086.06;5059850;28;20051;-70
2021/04/22 07:36:59;;;;;;;12.30;4.60;;;;;;;10.87;52.13;101091.75;5059639;28;20043;-70
2021/04/22 07:39:43;;;;;;;12.38;4.78;;;;;;;10.99;52.57;101091.59;5059758;28;20136;-72
2021/04/22 07:42:27;;;;;;;10.30;4.57;;;;;;;10.91;52.28;101102.03;5059209;28;20110;-71
2021/04/22 07:45:12;;;;;;;14.20;5.00;;;;;;;10.96;52.28;101101.66;5059452;28;20047;-72
2021/04/22 07:47:57;;;;;;;12.68;4.45;;;;;;;11.00;51.50;101098.63;5059155;28;20114;-72
2021/04/22 07:50:41;;;;;;;17.20;5.20;;;;;;;10.92;51.94;101105.53;5059009;28;20051;-71
2021/04/22 07:53:25;;;;;;;18.60;4.95;;;;;;;10.97;51.02;101098.84;5059155;28;20048;-72
2021/04/22 07:56:09;;;;;;;16.60;4.80;;;;;;;11.15;50.93;101100.00;5058975;28;20077;-71
2021/04/22 07:58:53;;;;;;;14.77;4.72;;;;;;;11.29;50.25;101112.19;5059346;28;20540;-72
2021/04/22 08:01:37;;;;;;;12.27;4.65;;;;;;;11.34;50.54;101113.50;5058735;28;20573;-71
2021/04/22 08:04:21;;;;;;;11.38;4.43;;;;;;;11.63;48.58;101111.06;5058921;28;20117;-71
2021/04/22 08:07:05;;;;;;;10.38;4.25;;;;;;;11.62;49.29;101109.38;5073233;28;20063;-71
2021/04/22 08:09:50;;;;;;;19.23;4.80;;;;;;;11.74;48.33;101106.50;5058509;28;20051;-71
2021/04/22 08:12:34;;;;;;;;;;;;;;;11.56;47.75;101105.38;5058854;28;20094;-72
2021/04/22 08:15:18;;;;;;;11.82;5.03;;;;;;;11.68;48.29;101106.19;5058763;28;19939;-72
2021/04/22 08:18:02;;;;;;;;;;;;;;;11.37;48.20;101102.56;5059102;28;20077;-72
2021/04/22 08:20:47;;;;;;;11.70;4.17;;;;;;;11.73;49.28;101115.50;5058771;28;20384;-72
2021/04/22 08:23:32;;;;;;;13.10;4.70;;;;;;;11.78;47.80;101115.94;5058696;28;20405;-70
2021/04/22 08:26:18;;;;;;;7.88;4.30;;;;;;;11.84;46.38;101118.09;5058804;28;20166;-70
2021/04/22 08:29:04;;;;;;;20.83;5.03;;;;;;;11.84;46.50;101120.78;5058791;28;20052;-70
2021/04/22 08:31:48;;;;;;;15.25;4.60;;;;;;;11.77;46.61;101121.44;5058263;28;20413;-72
2021/04/22 08:34:32;;;;;;;18.08;4.97;;;;;;;11.93;46.06;101125.31;5058661;28;20622;-69
2021/04/22 08:37:16;;;;;;;13.73;4.50;;;;;;;11.95;45.33;101126.03;5058497;28;20101;-70
2021/04/22 08:39:59;;;;;;;10.88;3.47;;;;;;;12.04;44.76;101116.38;5058652;28;20051;-71
2021/04/22 08:42:44;;;;;;;11.50;4.13;;;;;;;11.93;43.86;101127.13;5058055;28;20125;-71
2021/04/22 08:45:28;;;;;;;15.98;4.18;;;;;;;11.71;44.31;101122.81;5058148;28;20087;-69
2021/04/22 08:48:12;;;;;;;13.95;4.50;;;;;;;11.66;43.99;101127.69;5058318;28;20097;-70
2021/04/22 08:50:57;;;;;;;13.15;4.43;;;;;;;11.75;44.05;101132.25;5058263;28;20518;-70
2021/04/22 08:53:44;;;;;;;13.27;4.00;;;;;;;11.89;43.70;101131.06;5058185;28;20043;-70
2021/04/22 08:56:29;;;;;;;13.23;4.20;;;;;;;12.30;44.27;101137.16;5072193;28;20516;-71
2021/04/22 08:59:13;;;;;;;13.90;4.75;;;;;;;12.43;42.22;101121.75;5057915;28;20079;-70
2021/04/22 09:01:57;;;;;;;16.67;4.45;;;;;;;12.72;42.77;101141.41;5057934;28;20139;-72
2021/04/22 09:04:41;;;;;;;7.90;3.53;;;;;;;12.79;41.63;101139.88;5057865;28;20055;-71
2021/04/22 09:07:25;;;;;;;14.45;4.85;;;;;;;13.11;41.07;101135.16;5057792;28;20465;-72
2021/04/22 09:10:15;;;;;;;12.60;4.82;;;;;;;13.33;40.79;101135.75;5057993;28;20078;-72
2021/04/22 09:13:10;;;;;;;10.98;3.97;;;;;;;13.51;39.74;101138.56;5057389;28;20047;-72
2021/04/22 09:16:14;;;;;;;10.85;4.05;;;;;;;13.75;39.22;101147.03;5057950;28;20094;-71
2021/04/22 09:19:26;;;;;;;13.25;4.15;;;;;;;13.46;38.54;101135.47;5057696;28;20094;-71
2021/04/22 09:22:10;;;;;;;13.50;3.67;;;;;;;13.78;38.78;101142.19;5057583;28;20071;-71
2021/04/22 09:24:55;;;;;;;8.63;3.72;;;;;;;14.40;37.57;101138.94;5059213;28;20047;-72
2021/04/22 09:27:39;;;;;;;15.88;4.20;;;;;;;14.12;36.94;101145.22;5057654;28;20079;-72
2021/04/22 09:30:40;;;;;;;10.38;3.80;;;;;;;14.02;37.08;101142.59;5057445;28;20083;-72
2021/04/22 09:33:26;;;;;;;11.10;3.85;;;;;;;14.45;37.45;101136.66;5057572;28;20194;-72
2021/04/22 09:36:15;;;;;;;15.70;3.88;;;;;;;14.80;36.40;101142.97;5057764;28;20067;-71
2021/04/22 09:38:59;;;;;;;12.57;3.80;;;;;;;14.84;35.53;101140.84;5057680;28;20047;-71
2021/04/22 09:41:44;;;;;;;16.50;4.18;;;;;;;15.18;35.51;101141.88;5056557;28;20516;-72
2021/04/22 09:44:28;;;;;;;13.77;3.25;;;;;;;15.38;33.93;101140.75;5057387;28;20101;-72
2021/04/22 09:47:17;;;;;;;11.30;4.07;;;;;;;15.70;33.41;101137.38;5057395;28;20531;-71
2021/04/22 09:50:01;;;;;;;10.80;4.00;;;;;;;15.84;32.90;101136.81;5057445;28;20083;-72
2021/04/22 09:52:53;;;;;;;15.85;4.35;;;;;;;16.19;32.92;101141.25;5057452;28;20056;-72
2021/04/22 09:55:37;;;;;;;8.70;3.78;;;;;;;16.38;32.52;101131.13;5057312;28;20051;-71
2021/04/22 09:58:28;;;;;;;12.07;3.35;;;;;;;16.81;31.09;101147.13;5057040;28;20097;-71
2021/04/22 10:01:20;;;;;;;11.88;3.58;;;;;;;17.16;30.61;101136.13;5057337;28;20051;-73
2021/04/22 10:04:04;;;;;;;11.65;3.95;;;;;;;18.31;28.81;101129.56;5057320;28;20451;-72
2021/04/22 10:06:48;;;;;;;11.13;4.28;;;;;;;19.02;26.76;101125.69;5057292;28;20106;-71
2021/04/22 10:09:36;;;;;;;12.25;3.92;;;;;;;19.56;25.77;101130.09;5057100;28;20086;-72
2021/04/22 10:12:34;;;;;;;12.52;4.28;;;;;;;20.83;24.70;101129.78;5056951;28;20051;-72
2021/04/22 10:15:21;;;;;;;11.43;4.05;;;;;;;21.37;23.96;101119.19;5057071;28;20463;-72
2021/04/22 10:18:08;;;;;;;13.68;3.80;;;;;;;22.42;22.38;101118.22;5057187;28;20223;-71
2021/04/22 10:20:56;;;;;;;13.00;4.55;;;;;;;21.97;23.05;101118.69;5057430;28;20513;-72
2021/04/22 10:23:40;;;;;;;7.35;3.50;;;;;;;23.36;21.62;101115.50;5057068;28;20386;-71
2021/04/22 10:26:24;;;;;;;16.73;3.90;;;;;;;24.32;20.44;101111.13;5056996;28;20121;-71
2021/04/22 10:29:08;;;;;;;;;;;;;;;23.90;20.58;101105.31;5057539;28;20094;-72
2021/04/22 10:31:55;;;;;;;10.25;4.22;;;;;;;22.69;20.76;101122.75;5056905;28;19970;-72
2021/04/22 10:34:39;;;;;;;9.57;3.78;;;;;;;24.24;20.38;101128.53;5056989;28;20051;-72
2021/04/22 10:37:25;;;;;;;11.05;3.95;;;;;;;25.89;18.45;101114.78;5057201;28;20413;-72
2021/04/22 10:40:12;;;;;;;15.73;4.10;;;;;;;27.00;17.82;101116.13;5057176;28;20090;-72
2021/04/22 10:42:58;;;;;;;11.48;4.63;;;;;;;27.53;16.91;101114.34;5071096;28;20166;-71
2021/04/22 10:45:44;;;;;;;12.48;5.07;;;;;;;26.66;16.78;101117.84;5056896;28;20052;-71
2021/04/22 10:48:28;;;;;;;17.40;4.78;;;;;;;28.36;15.99;101115.91;5056932;28;20056;-71
2021/04/22 10:51:12;;;;;;;8.73;4.57;;;;;;;29.74;15.26;101103.66;5056861;28;20079;-71
2021/04/22 10:53:56;;;;;;;13.45;5.45;;;;;;;26.88;17.19;101111.66;5060682;28;20039;-71
2021/04/22 10:56:40;;;;;;;15.30;4.53;;;;;;;28.25;15.85;101102.19;5060654;28;20105;-71
2021/04/22 10:59:27;;;;;;;42.05;22.30;;;;;;;28.97;15.10;101094.22;5060599;28;20078;-71
2021/04/22 11:02:21;;;;;;;25.10;12.48;;;;;;;27.94;15.48;101097.88;5074634;28;20570;-71
2021/04/22 11:05:26;;;;;;;14.10;6.30;;;;;;;26.52;16.89;101099.88;5074862;28;20516;-71
2021/04/22 11:08:11;;;;;;;13.82;5.13;;;;;;;27.34;16.50;101100.94;5060211;28;20063;-71
2021/04/22 11:10:56;;;;;;;20.15;7.88;;;;;;;27.17;16.91;101095.31;5060291;28;20094;-71
2021/04/22 11:13:41;;;;;;;16.27;5.70;;;;;;;26.22;16.74;101107.97;5060279;28;20102;-71
2021/04/22 11:16:33;;;;;;;11.45;4.53;;;;;;;26.59;16.54;101089.72;5060165;28;20050;-72
2021/04/22 11:19:30;;;;;;;13.75;4.63;;;;;;;27.17;17.03;101092.56;5060201;28;20051;-71
2021/04/22 11:22:21;;;;;;;11.40;5.03;;;;;;;26.58;16.65;101085.31;5060062;28;20089;-71
2021/04/22 11:25:09;;;;;;;11.70;4.15;;;;;;;28.13;16.42;101091.22;5059921;28;20416;-71
2021/04/22 11:27:54;;;;;;;10.70;5.22;;;;;;;27.85;15.79;101096.59;5073831;28;20110;-70
2021/04/22 11:30:38;;;;;;;13.45;5.15;;;;;;;28.92;14.85;101098.78;5074159;28;20046;-71
2021/04/22 11:33:27;;;;;;;12.70;4.60;;;;;;;30.15;14.04;101082.97;5059677;28;20512;-70
2021/04/22 11:36:17;;;;;;;10.35;4.63;;;;;;;29.78;13.54;101086.44;5059872;28;20059;-71
2021/04/22 11:39:07;;;;;;;10.95;4.53;;;;;;;29.48;13.94;101080.38;5059892;28;20074;-71
2021/04/22 11:41:59;;;;;;;12.60;4.60;;;;;;;29.36;14.55;101082.34;5059627;28;20109;-71
2021/04/22 11:44:51;;;;;;;12.82;4.80;;;;;;;30.64;14.35;101079.25;5059423;28;20128;-70
2021/04/22 11:47:36;;;;;;;13.10;5.00;;;;;;;31.86;14.87;101074.84;5060196;28;20062;-70
2021/04/22 11:50:21;;;;;;;10.73;4.35;;;;;;;31.87;11.98;101068.22;5059683;28;20051;-71
2021/04/22 11:53:06;;;;;;;16.50;5.43;;;;;;;31.88;12.02;101067.94;5073455;28;20154;-71
2021/04/22 11:55:56;;;;;;;9.13;4.35;;;;;;;31.72;11.70;101068.09;5059516;28;20615;-71
2021/04/22 11:58:41;;;;;;;9.40;3.70;;;;;;;30.16;12.61;101076.38;5073520;28;20043;-71
2021/04/22 12:01:25;;;;;;;15.02;4.38;;;;;;;30.25;12.36;101076.75;5059358;28;20067;-71
2021/04/22 12:04:09;;;;;;;11.80;4.30;;;;;;;30.78;11.90;101083.31;5058394;28;20047;-72
2021/04/22 12:06:53;;;;;;;12.70;4.80;;;;;;;30.43;12.73;101074.53;5059322;28;20044;-71
2021/04/22 12:09:40;;;;;;;15.10;5.25;;;;;;;29.87;12.44;101065.69;5059467;28;20062;-72
2021/04/22 12:12:26;;;;;;;13.65;4.68;;;;;;;29.51;12.91;101074.44;5073118;28;20055;-71
2021/04/22 12:15:10;;;;;;;10.57;4.53;;;;;;;30.14;13.37;101063.94;5059210;28;20051;-72
2021/04/22 12:17:55;;;;;;;11.60;4.30;;;;;;;29.56;11.61;101068.19;5058915;28;20101;-72
2021/04/22 12:20:39;;;;;;;8.80;4.45;;;;;;;29.51;11.50;101068.09;5058745;28;20463;-71
2021/04/22 12:23:28;;;;;;;7.32;3.70;;;;;;;28.11;12.38;101071.44;5058997;28;20067;-71
2021/04/22 12:26:15;;;;;;;11.18;3.75;;;;;;;28.20;12.86;101071.91;5058823;28;20046;-71
2021/04/22 12:29:07;;;;;;;9.23;3.42;;;;;;;29.98;12.83;101065.59;5072784;28;20048;-71
2021/04/22 12:31:58;;;;;;;12.32;4.18;;;;;;;29.95;11.60;101065.28;5058372;28;20117;-72
2021/04/22 12:34:42;;;;;;;12.32;4.43;;;;;;;30.43;12.59;101062.72;5058557;28;20131;-72
2021/04/22 12:37:26;;;;;;;11.30;4.15;;;;;;;30.82;12.22;101058.84;5058516;28;20051;-72